Time;durP1;ratioP1;P1;durP2;ratioP2;P2;SDS_P1;SDS_P2;PMS_P1;PMS_P2;Temp;Humidity;BMP_temperature;BMP_pressure;BME280_temperature;BME280_humidity;BME280_pressure;Samples;Min_cycle;Max_cycle;Signal;HPM_P1;HPM_P2
2022/12/16 00:01:30;;;;;;;9.13;7.70;;;;;;;-8.22;98.51;100084.94;5033978;28;20894;-72
2022/12/16 00:03:57;;;;;;;9.13;7.57;;;;;;;-8.00;99.39;100079.44;5034396;28;20124;-72
2022/12/16 00:06:25;;;;;;;10.70;7.67;;;;;;;-7.85;99.69;100080.34;5034207;28;20044;-72
2022/12/16 00:08:51;;;;;;;10.67;9.10;;;;;;;-7.77;98.45;100078.25;5034418;28;20044;-72
2022/12/16 00:11:16;;;;;;;10.70;8.53;;;;;;;-7.76;98.10;100085.13;5032900;28;20030;-72
2022/12/16 00:13:42;;;;;;;8.20;7.13;;;;;;;-7.80;97.55;100084.06;5033486;28;20551;-72
2022/12/16 00:16:15;;;;;;;9.57;8.13;;;;;;;-7.75;97.35;100081.78;5034206;28;20048;-73
2022/12/16 00:18:40;;;;;;;8.77;7.33;;;;;;;-7.68;98.10;100083.00;5030601;28;20045;-73
2022/12/16 00:21:07;;;;;;;10.17;7.43;;;;;;;-7.58;98.20;100077.66;5034119;28;20100;-72
2022/12/16 00:23:33;;;;;;;10.53;8.20;;;;;;;-7.66;96.77;100082.31;5034229;28;20041;-72
2022/12/16 00:25:58;;;;;;;10.20;7.97;;;;;;;-7.65;96.75;100081.53;5033749;28;20049;-72
2022/12/16 00:28:24;;;;;;;11.10;7.37;;;;;;;-7.57;98.30;100077.75;5033695;28;20455;-73
2022/12/16 00:30:51;;;;;;;11.07;7.80;;;;;;;-7.48;98.04;100079.94;5033984;28;20056;-73
2022/12/16 00:33:18;;;;;;;10.03;7.27;;;;;;;-7.41;97.75;100078.59;5034083;28;20377;-73
2022/12/16 00:35:44;;;;;;;9.87;7.90;;;;;;;-7.37;98.07;100075.44;5032513;28;20030;-73
2022/12/16 00:38:09;;;;;;;9.90;8.57;;;;;;;-7.33;98.27;100073.16;5033826;28;20029;-73
2022/12/16 00:40:35;;;;;;;11.13;8.30;;;;;;;-7.42;97.15;100067.47;5033848;28;20553;-73
2022/12/16 00:43:01;;;;;;;11.33;8.30;;;;;;;-7.41;97.60;100058.09;5033966;28;20057;-73
2022/12/16 00:45:26;;;;;;;11.43;8.57;;;;;;;-7.38;97.47;100051.50;5033424;28;20404;-73
2022/12/16 00:47:52;;;;;;;10.37;7.73;;;;;;;-7.38;98.14;100054.06;5033700;28;20414;-72
2022/12/16 00:50:19;;;;;;;11.67;7.50;;;;;;;-7.28;98.94;100058.91;5033659;28;20757;-73
2022/12/16 00:52:45;;;;;;;10.17;8.37;;;;;;;-7.12;99.72;100058.09;5033384;28;20087;-72
2022/12/16 00:55:11;;;;;;;9.67;7.30;;;;;;;-6.92;100.00;100055.75;5033100;28;20507;-72
2022/12/16 00:57:37;;;;;;;10.27;8.87;;;;;;;-6.67;100.00;100058.88;5033190;28;20055;-73
2022/12/16 01:00:05;;;;;;;10.37;8.57;;;;;;;-6.41;100.00;100051.72;5028908;28;20065;-73
2022/12/16 01:02:31;;;;;;;9.87;8.20;;;;;;;-6.23;100.00;100045.00;5033288;28;20037;-72
2022/12/16 01:04:56;;;;;;;10.67;8.43;;;;;;;-6.06;100.00;100044.97;5033375;28;20091;-73
2022/12/16 01:07:22;;;;;;;10.43;8.20;;;;;;;-5.89;100.00;100045.84;5033069;28;20404;-72
2022/12/16 01:09:47;;;;;;;10.33;7.57;;;;;;;-5.77;100.00;100049.91;5032526;28;20029;-73
2022/12/16 01:12:12;;;;;;;9.00;7.70;;;;;;;-5.65;100.00;100056.47;5033109;28;20124;-73
2022/12/16 01:14:37;;;;;;;9.70;8.70;;;;;;;-5.55;100.00;100051.00;5015407;28;20041;-73
2022/12/16 01:17:03;;;;;;;9.80;7.30;;;;;;;-5.65;98.99;100057.38;5032961;28;20033;-72
2022/12/16 01:19:28;;;;;;;9.63;7.67;;;;;;;-5.75;99.11;100060.25;5033332;28;20045;-73
2022/12/16 01:21:53;;;;;;;10.30;8.20;;;;;;;-5.79;99.84;100061.81;5032981;28;20038;-72
2022/12/16 01:24:19;;;;;;;9.50;7.63;;;;;;;-5.80;99.82;100060.03;5032905;28;20038;-72
2022/12/16 01:26:44;;;;;;;10.23;8.03;;;;;;;-5.84;100.00;100058.13;5032562;28;20161;-72
2022/12/16 01:29:09;;;;;;;10.30;8.23;;;;;;;-5.86;100.00;100062.28;5032808;28;20069;-72
2022/12/16 01:31:35;;;;;;;9.87;8.30;;;;;;;-5.84;100.00;100058.13;5015135;28;20072;-73
2022/12/16 01:34:00;;;;;;;10.93;8.50;;;;;;;-5.81;100.00;100067.69;5032928;28;20069;-73
2022/12/16 01:36:26;;;;;;;11.60;9.07;;;;;;;-5.75;100.00;100062.84;5032492;28;20075;-72
2022/12/16 01:38:51;;;;;;;9.90;8.43;;;;;;;-5.58;100.00;100066.25;5032640;28;20060;-72
2022/12/16 01:41:17;;;;;;;8.97;7.77;;;;;;;-5.41;100.00;100073.13;5014818;28;20124;-72
2022/12/16 01:43:44;;;;;;;8.73;7.23;;;;;;;-5.27;100.00;100066.09;5032605;28;20065;-73
2022/12/16 01:46:12;;;;;;;9.23;7.87;;;;;;;-5.12;100.00;100063.41;5028867;28;20482;-73
2022/12/16 01:49:01;;;;;;;8.60;7.30;;;;;;;-5.06;99.20;100061.13;5032295;28;20396;-72
2022/12/16 01:51:26;;;;;;;11.27;10.13;;;;;;;-5.00;98.49;100053.72;5029533;28;20454;-73
2022/12/16 01:53:56;;;;;;;10.57;8.83;;;;;;;-5.07;97.06;100057.66;5032521;28;20112;-72
2022/12/16 01:56:24;;;;;;;9.73;7.80;;;;;;;-5.12;97.96;100065.97;5014437;28;20033;-72
2022/12/16 01:58:51;;;;;;;9.57;7.63;;;;;;;-5.14;97.84;100068.47;5045352;22;20415;-74
2022/12/16 02:01:16;;;;;;;8.60;7.47;;;;;;;-5.24;96.75;100058.56;5021493;28;20037;-74
2022/12/16 02:03:42;;;;;;;10.70;8.47;;;;;;;-5.32;97.33;100065.91;5022803;28;20120;-75
2022/12/16 02:06:07;;;;;;;10.10;8.13;;;;;;;-5.39;97.48;100062.94;5023603;28;20030;-74
2022/12/16 02:08:33;;;;;;;9.60;8.13;;;;;;;-5.39;97.48;100056.09;5023472;28;20091;-74
2022/12/16 02:11:06;;;;;;;9.13;7.73;;;;;;;-5.36;96.72;100048.53;5020788;28;20038;-74
2022/12/16 02:13:51;;;;;;;9.97;8.90;;;;;;;-5.37;97.30;100041.63;5021617;28;20042;-74
2022/12/16 02:16:33;;;;;;;9.17;8.13;;;;;;;-5.30;97.61;100043.69;5020736;28;20084;-74
2022/12/16 02:19:18;;;;;;;9.48;8.18;;;;;;;-5.28;96.93;100034.34;5022946;28;20029;-74
2022/12/16 02:22:09;;;;;;;9.80;8.27;;;;;;;-5.21;97.49;100042.34;5023124;28;20048;-74
2022/12/16 02:24:49;;;;;;;8.80;7.33;;;;;;;-5.18;96.53;100032.25;5023298;28;20466;-75
2022/12/16 02:27:33;;;;;;;9.63;8.43;;;;;;;-5.16;96.33;100030.59;5025258;28;20455;-74
2022/12/16 02:30:07;;;;;;;10.43;7.90;;;;;;;-5.13;97.09;100028.22;5021011;28;20042;-74
2022/12/16 02:32:43;;;;;;;9.50;7.87;;;;;;;-5.15;96.25;100027.25;5025599;28;20049;-74
2022/12/16 02:35:38;;;;;;;10.43;7.20;;;;;;;-5.14;97.16;100029.00;5020882;28;20034;-74
2022/12/16 02:38:40;;;;;;;10.67;8.73;;;;;;;-5.11;97.98;100024.91;5023447;28;20036;-74
2022/12/16 02:41:16;;;;;;;9.77;8.07;;;;;;;-5.08;97.25;100021.59;5025321;28;20491;-74
2022/12/16 02:44:02;;;;;;;11.63;8.17;;;;;;;-5.08;97.12;100013.88;5025156;28;20029;-74
2022/12/16 02:46:32;;;;;;;9.27;8.37;;;;;;;-4.97;97.94;100012.69;5019854;28;20045;-74
2022/12/16 02:49:05;;;;;;;9.97;8.40;;;;;;;-4.89;97.68;100008.78;5024475;28;20040;-74
2022/12/16 02:51:32;;;;;;;10.67;8.00;;;;;;;-4.79;97.88;100001.47;5027511;28;20041;-74
2022/12/16 02:53:57;;;;;;;9.60;7.70;;;;;;;-4.73;96.73;100006.91;5025718;28;20056;-74
2022/12/16 02:56:34;;;;;;;9.77;7.97;;;;;;;-4.69;96.48;100003.66;5023421;28;20041;-74
2022/12/16 02:59:16;;;;;;;10.23;7.40;;;;;;;-4.65;96.20;100005.56;5022687;28;20068;-74
2022/12/16 03:01:56;;;;;;;9.93;7.68;;;;;;;-4.61;96.28;100002.34;5023141;28;20032;-74
2022/12/16 03:04:30;;;;;;;11.43;7.40;;;;;;;-4.59;95.87;99998.13;5025528;28;20120;-74
2022/12/16 03:06:57;;;;;;;9.10;7.40;;;;;;;-4.59;96.03;100003.28;5022451;28;20057;-74
2022/12/16 03:09:28;;;;;;;8.97;7.53;;;;;;;-4.55;96.38;100006.88;5020717;28;20076;-74
2022/12/16 03:11:55;;;;;;;9.73;8.27;;;;;;;-4.49;96.46;100002.88;5021774;28;20443;-75
2022/12/16 03:14:24;;;;;;;9.73;7.63;;;;;;;-4.45;95.95;100003.91;5021723;28;20028;-74
2022/12/16 03:16:50;;;;;;;10.50;8.50;;;;;;;-4.46;95.48;99997.88;5019531;28;20045;-74
2022/12/16 03:19:15;;;;;;;8.73;7.70;;;;;;;-4.45;95.43;100009.06;5023241;28;20033;-74
2022/12/16 03:21:55;;;;;;;10.23;8.23;;;;;;;-4.41;96.14;100004.09;5023395;28;20112;-74
2022/12/16 03:24:22;;;;;;;11.40;8.20;;;;;;;-4.44;95.70;100000.53;5022754;28;20104;-74
2022/12/16 03:27:04;;;;;;;10.10;8.57;;;;;;;-4.42;96.16;100001.47;5022534;28;20046;-74
2022/12/16 03:29:44;;;;;;;10.00;8.57;;;;;;;-4.37;95.48;100001.69;5022612;28;20051;-74
2022/12/16 03:32:22;;;;;;;10.27;8.23;;;;;;;-4.41;95.23;100008.38;5020887;28;20042;-74
2022/12/16 03:34:52;;;;;;;10.60;8.40;;;;;;;-4.44;95.68;100010.81;5022750;28;20667;-74
2022/12/16 03:37:19;;;;;;;10.43;8.30;;;;;;;-4.46;95.68;100003.00;5024984;28;20067;-74
2022/12/16 03:39:52;;;;;;;9.83;8.20;;;;;;;-4.45;95.39;100007.38;5022822;28;20044;-74
2022/12/16 03:42:17;;;;;;;;;;;;;;;-4.41;94.73;100006.69;5023198;28;20063;-74
2022/12/16 03:44:44;;;;;;;10.60;8.07;;;;;;;-4.34;95.45;100004.41;5019676;28;20011;-74
2022/12/16 03:47:10;;;;;;;10.43;7.47;;;;;;;-4.32;94.48;100003.66;5021180;28;20038;-74
2022/12/16 03:49:35;;;;;;;10.13;8.57;;;;;;;-4.30;94.07;100007.16;5021607;28;20056;-74
2022/12/16 03:52:01;;;;;;;10.03;8.17;;;;;;;-4.32;94.24;100007.91;5020283;28;20042;-74
2022/12/16 03:54:26;;;;;;;10.87;8.47;;;;;;;-4.32;94.10;100006.22;5020897;28;20042;-74
2022/12/16 03:56:51;;;;;;;10.77;8.03;;;;;;;-4.35;94.54;100007.78;5019357;28;20041;-74
2022/12/16 03:59:17;;;;;;;10.60;8.43;;;;;;;-4.41;94.38;100006.69;5024963;28;20059;-74
2022/12/16 04:01:42;;;;;;;10.97;9.20;;;;;;;-4.36;94.64;100013.75;5020150;28;20128;-74
2022/12/16 04:04:08;;;;;;;10.83;8.73;;;;;;;-4.41;94.37;100013.53;5021066;28;20053;-74
2022/12/16 04:06:33;;;;;;;11.07;8.73;;;;;;;-4.38;95.18;100015.38;5020956;28;20049;-74
2022/12/16 04:08:58;;;;;;;11.00;8.87;;;;;;;-4.43;94.71;100010.91;5022698;28;20377;-74
2022/12/16 04:25:15;;;;;;;12.30;9.23;;;;;;;-4.40;95.62;100020.47;5024813;28;20436;-74
2022/12/16 04:27:45;;;;;;;10.57;8.47;;;;;;;-4.37;95.78;100014.56;5029715;28;20033;-74
2022/12/16 04:30:19;;;;;;;11.23;8.97;;;;;;;-4.39;96.15;100022.22;5026807;28;20385;-75
